createdAt,value
2017-11-18T00:01:55.966Z,46.20
2017-11-18T00:04:22.655Z,47.23
2017-11-18T00:06:49.402Z,41.77
2017-11-18T00:09:16.073Z,44.73
2017-11-18T00:11:43.493Z,42.00
2017-11-18T00:14:10.200Z,41.20
2017-11-18T00:16:36.934Z,44.83
2017-11-18T00:19:03.649Z,45.97
2017-11-18T00:21:31.093Z,56.47
2017-11-18T00:23:57.793Z,45.97
2017-11-18T00:26:24.482Z,53.70
2017-11-18T00:28:51.182Z,45.00
2017-11-18T00:31:17.874Z,48.27
2017-11-18T00:33:44.545Z,46.13
2017-11-18T00:36:11.263Z,46.67
2017-11-18T00:38:37.921Z,50.75
2017-11-18T00:41:05.689Z,46.22
2017-11-18T00:43:33.153Z,45.05
2017-11-18T00:46:00.565Z,42.53
2017-11-18T00:48:27.253Z,43.85
2017-11-18T00:50:54.701Z,42.63
2017-11-18T00:53:21.333Z,42.70
2017-11-18T00:55:48.115Z,46.37
2017-11-18T00:58:14.839Z,43.35
2017-11-18T01:00:41.526Z,50.30
2017-11-18T01:03:08.202Z,46.10
2017-11-18T01:05:34.921Z,48.30
2017-11-18T01:08:01.852Z,48.33
2017-11-18T01:10:28.544Z,50.60
2017-11-18T01:12:55.265Z,52.33
2017-11-18T01:15:21.947Z,54.20
2017-11-18T01:17:49.376Z,51.30
2017-11-18T01:20:16.083Z,49.05
2017-11-18T01:22:42.788Z,47.22
2017-11-18T01:25:10.232Z,49.97
2017-11-18T01:27:36.885Z,48.77
2017-11-18T01:30:03.597Z,47.20
2017-11-18T01:32:30.385Z,47.40
2017-11-18T01:34:57.833Z,48.85
2017-11-18T01:37:24.537Z,48.80
2017-11-18T01:39:51.225Z,48.27
2017-11-18T01:42:17.956Z,45.45
2017-11-18T01:44:44.687Z,47.55
2017-11-18T01:47:11.339Z,47.10
2017-11-18T01:49:38.061Z,45.00
2017-11-18T01:52:04.841Z,48.40
2017-11-18T01:54:31.601Z,47.88
2017-11-18T01:56:58.317Z,44.42
2017-11-18T01:59:25.076Z,48.03
2017-11-18T02:01:51.822Z,46.37
2017-11-18T02:04:18.638Z,47.87
2017-11-18T02:06:46.121Z,48.80
2017-11-18T02:09:12.818Z,51.27
2017-11-18T02:11:39.504Z,50.20
2017-11-18T02:14:06.229Z,51.23
2017-11-18T02:16:32.933Z,52.90
2017-11-18T02:18:59.630Z,56.70
2017-11-18T02:21:26.408Z,55.20
2017-11-18T02:23:53.936Z,51.83
2017-11-18T02:26:20.721Z,50.13
2017-11-18T02:28:48.551Z,51.47
2017-11-18T02:31:15.351Z,50.80
2017-11-18T02:33:42.116Z,49.10
2017-11-18T02:36:08.847Z,52.20
2017-11-18T02:38:35.651Z,48.77
2017-11-18T02:41:03.142Z,48.58
2017-11-18T02:43:29.876Z,52.60
2017-11-18T02:45:57.404Z,50.53
2017-11-18T02:48:24.156Z,50.90
2017-11-18T02:50:50.945Z,51.15
2017-11-18T02:53:17.691Z,51.42
2017-11-18T02:55:44.520Z,49.35
2017-11-18T02:58:11.289Z,47.45
2017-11-18T03:00:38.081Z,49.50
2017-11-18T03:03:05.509Z,53.92
2017-11-18T03:05:32.206Z,51.22
2017-11-18T03:07:58.878Z,50.47
2017-11-18T03:10:25.616Z,52.95
2017-11-18T03:12:52.365Z,53.80
2017-11-18T03:15:19.095Z,53.93
2017-11-18T03:17:45.809Z,52.62
2017-11-18T03:20:12.515Z,65.50
2017-11-18T03:22:39.186Z,52.72
2017-11-18T03:25:05.958Z,53.40
2017-11-18T03:27:33.388Z,53.63
2017-11-18T03:30:00.103Z,51.05
2017-11-18T03:32:26.800Z,57.97
2017-11-18T03:34:53.496Z,62.80
2017-11-18T03:37:20.245Z,58.20
2017-11-18T03:39:46.956Z,55.75
2017-11-18T03:42:13.652Z,51.10
2017-11-18T03:44:40.377Z,60.38
2017-11-18T03:47:07.090Z,57.70
2017-11-18T03:49:33.781Z,53.87
2017-11-18T03:52:00.531Z,51.53
2017-11-18T03:54:27.243Z,55.85
2017-11-18T03:56:53.962Z,57.40
2017-11-18T03:59:20.710Z,50.33
2017-11-18T04:01:47.378Z,54.20
2017-11-18T04:04:14.092Z,51.60
2017-11-18T04:06:40.854Z,48.13
2017-11-18T04:09:07.561Z,45.92
2017-11-18T04:11:35.017Z,46.40
2017-11-18T04:14:02.470Z,47.10
2017-11-18T04:16:29.881Z,46.60
2017-11-18T04:18:56.562Z,49.27
2017-11-18T04:21:23.297Z,48.70
2017-11-18T04:23:50.045Z,53.03
2017-11-18T04:26:17.264Z,51.57
2017-11-18T04:28:44.002Z,48.30
2017-11-18T04:31:10.727Z,49.17
2017-11-18T04:33:37.457Z,54.60
2017-11-18T04:36:04.952Z,49.35
2017-11-18T04:38:31.689Z,47.58
2017-11-18T04:40:58.434Z,48.63
2017-11-18T04:43:25.155Z,46.93
2017-11-18T04:45:52.621Z,51.15
2017-11-18T04:48:19.349Z,51.50
2017-11-18T04:50:46.838Z,52.57
2017-11-18T04:53:13.549Z,51.72
2017-11-18T04:55:41.008Z,47.90
2017-11-18T04:58:07.701Z,43.17
2017-11-18T05:00:34.457Z,46.83
2017-11-18T05:03:01.128Z,45.03
2017-11-18T05:05:27.853Z,46.80
2017-11-18T05:07:54.552Z,43.63
2017-11-18T05:10:21.269Z,47.87
2017-11-18T05:12:47.974Z,44.17
2017-11-18T05:15:14.694Z,47.88
2017-11-18T05:17:41.404Z,45.38
2017-11-18T05:20:09.707Z,47.13
2017-11-18T05:22:36.472Z,47.38
2017-11-18T05:25:03.254Z,47.25
2017-11-18T05:27:29.963Z,48.33
2017-11-18T05:29:56.747Z,47.08
2017-11-18T05:32:24.453Z,43.75
2017-11-18T05:34:51.174Z,44.13
2017-11-18T05:37:17.935Z,47.10
2017-11-18T05:39:45.383Z,45.03
2017-11-18T05:42:12.833Z,50.47
2017-11-18T05:44:40.280Z,46.40
2017-11-18T05:47:07.094Z,48.00
2017-11-18T05:49:33.782Z,43.50
2017-11-18T05:52:00.560Z,43.15
2017-11-18T05:54:27.977Z,45.80
2017-11-18T05:56:54.698Z,47.95
2017-11-18T05:59:21.417Z,40.58
2017-11-18T06:01:48.211Z,45.00
2017-11-18T06:04:14.898Z,41.97
2017-11-18T06:06:42.345Z,44.93
2017-11-18T06:09:09.842Z,44.25
2017-11-18T06:11:36.648Z,43.92
2017-11-18T06:14:04.114Z,47.42
2017-11-18T06:16:31.550Z,43.28
2017-11-18T06:18:58.228Z,45.23
2017-11-18T06:21:25.028Z,45.03
2017-11-18T06:23:51.707Z,43.67
2017-11-18T06:26:18.386Z,44.17
2017-11-18T06:28:45.077Z,43.97
2017-11-18T06:31:11.755Z,44.27
2017-11-18T06:33:38.427Z,46.17
2017-11-18T06:36:05.105Z,44.40
2017-11-18T06:38:31.778Z,47.07
2017-11-18T06:40:58.445Z,45.50
2017-11-18T06:43:25.105Z,46.27
2017-11-18T06:45:51.756Z,46.53
2017-11-18T06:48:18.499Z,43.30
2017-11-18T06:50:45.185Z,41.90
2017-11-18T06:53:11.875Z,40.57
2017-11-18T06:55:39.268Z,43.27
2017-11-18T06:58:05.992Z,44.93
2017-11-18T07:00:32.707Z,42.03
2017-11-18T07:02:59.386Z,41.90
2017-11-18T07:05:27.545Z,41.33
2017-11-18T07:07:54.277Z,39.90
2017-11-18T07:10:21.920Z,39.53
2017-11-18T07:12:48.602Z,38.03
2017-11-18T07:15:16.920Z,37.37
2017-11-18T07:17:44.349Z,39.07
2017-11-18T07:20:11.080Z,38.40
2017-11-18T07:22:37.816Z,41.97
2017-11-18T07:25:04.484Z,40.93
2017-11-18T07:27:31.266Z,43.63
2017-11-18T07:29:57.962Z,42.72
2017-11-18T07:32:24.692Z,42.93
2017-11-18T07:34:51.404Z,40.50
2017-11-18T07:37:18.113Z,43.93
2017-11-18T07:39:44.793Z,44.17
2017-11-18T07:42:11.471Z,41.47
2017-11-18T07:44:38.139Z,42.43
2017-11-18T07:47:04.849Z,41.60
2017-11-18T07:49:31.560Z,38.72
2017-11-18T07:51:58.322Z,37.20
2017-11-18T07:54:25.049Z,37.95
2017-11-18T07:56:51.773Z,38.13
2017-11-18T07:59:19.240Z,39.23
2017-11-18T08:01:46.675Z,39.13
2017-11-18T08:04:13.323Z,39.40
2017-11-18T08:06:40.021Z,38.00
2017-11-18T08:09:06.679Z,37.60
2017-11-18T08:11:33.392Z,36.10
2017-11-18T08:14:00.090Z,31.83
2017-11-18T08:16:27.735Z,39.03
2017-11-18T08:18:54.453Z,34.13
2017-11-18T08:21:21.195Z,35.03
2017-11-18T08:23:47.892Z,36.80
2017-11-18T08:26:14.551Z,34.80
2017-11-18T08:28:41.226Z,33.20
2017-11-18T08:31:07.988Z,32.37
2017-11-18T08:33:34.638Z,34.60
2017-11-18T08:49:35.220Z,26.67
2017-11-18T08:52:02.635Z,25.60
2017-11-18T08:54:29.564Z,25.70
2017-11-18T08:56:57.060Z,26.50
2017-11-18T08:59:30.641Z,24.00
2017-11-18T09:01:57.605Z,23.70
2017-11-18T09:04:24.268Z,21.97
2017-11-18T09:06:51.916Z,22.17
2017-11-18T09:09:18.668Z,20.20
2017-11-18T09:11:45.361Z,22.07
2017-11-18T09:14:12.034Z,21.63
2017-11-18T09:16:39.673Z,20.50
2017-11-18T09:19:06.348Z,22.23
2017-11-18T09:21:33.116Z,22.23
2017-11-18T09:23:59.901Z,22.50
2017-11-18T09:26:26.615Z,21.60
2017-11-18T09:31:48.961Z,21.97
2017-11-18T09:34:21.004Z,21.70
2017-11-18T09:36:47.843Z,23.10
2017-11-18T09:39:14.572Z,23.20
2017-11-18T09:41:41.391Z,23.17
2017-11-18T09:44:08.128Z,25.50
2017-11-18T09:46:35.769Z,25.40
2017-11-18T09:49:02.482Z,26.70
2017-11-18T09:51:32.199Z,24.97
2017-11-18T09:54:01.078Z,23.00
2017-11-18T09:56:28.492Z,26.67
2017-11-18T09:58:55.733Z,27.00
2017-11-18T10:01:22.426Z,28.93
2017-11-18T10:03:49.961Z,29.47
2017-11-18T10:06:16.875Z,25.93
2017-11-18T10:08:43.565Z,25.73
2017-11-18T10:11:10.239Z,27.43
2017-11-18T10:13:37.020Z,27.60
2017-11-18T10:16:03.702Z,27.87
2017-11-18T10:18:30.400Z,26.90
2017-11-18T10:20:57.093Z,24.90
2017-11-18T10:23:24.518Z,25.00
2017-11-18T10:25:51.175Z,27.70
2017-11-18T10:28:17.910Z,27.57
2017-11-18T10:30:45.446Z,28.13
2017-11-18T10:33:12.402Z,26.67
2017-11-18T10:35:39.083Z,26.60
2017-11-18T10:38:05.781Z,26.87
2017-11-18T10:40:32.484Z,27.10
2017-11-18T10:42:59.910Z,26.63
2017-11-18T10:45:26.693Z,25.70
2017-11-18T10:47:54.139Z,25.67
2017-11-18T10:50:20.829Z,25.83
2017-11-18T10:52:47.529Z,26.03
2017-11-18T10:55:15.017Z,26.67
2017-11-18T10:57:41.752Z,26.30
2017-11-18T11:00:09.249Z,26.50
2017-11-18T11:02:35.965Z,26.53
2017-11-18T11:05:02.819Z,25.83
2017-11-18T11:10:01.758Z,27.83
2017-11-18T11:12:29.377Z,27.50
2017-11-18T11:14:56.815Z,29.80
2017-11-18T11:17:23.598Z,29.67
2017-11-18T11:19:51.100Z,29.80
2017-11-18T11:22:25.600Z,28.10
2017-11-18T11:24:52.284Z,26.60
2017-11-18T11:27:18.974Z,26.53
2017-11-18T11:29:45.677Z,27.10
2017-11-18T11:32:12.383Z,25.87
2017-11-18T11:34:39.202Z,26.60
2017-11-18T11:37:05.919Z,24.90
2017-11-18T11:39:32.591Z,23.00
2017-11-18T11:42:00.063Z,24.57
2017-11-18T11:44:26.863Z,24.53
2017-11-18T11:46:53.548Z,25.13
2017-11-18T11:49:20.313Z,26.77
2017-11-18T11:51:47.036Z,24.87
2017-11-18T11:54:13.783Z,25.20
2017-11-18T11:56:40.496Z,23.80
2017-11-18T11:59:07.211Z,22.80
2017-11-18T12:01:34.698Z,23.47
2017-11-18T12:04:02.058Z,23.27
2017-11-18T12:06:28.804Z,23.47
2017-11-18T12:08:55.481Z,23.00
2017-11-18T12:11:22.236Z,21.30
2017-11-18T12:13:49.006Z,16.07
2017-11-18T12:16:15.711Z,19.87
2017-11-18T12:18:42.419Z,19.93
2017-11-18T12:21:09.196Z,16.37
2017-11-18T12:23:35.901Z,17.57
2017-11-18T12:26:02.628Z,20.80
2017-11-18T12:41:38.550Z,19.93
2017-11-18T12:44:05.292Z,19.50
2017-11-18T12:46:32.157Z,20.20
2017-11-18T12:48:58.865Z,17.50
2017-11-18T12:51:26.360Z,17.90
2017-11-18T12:53:53.081Z,16.27
2017-11-18T12:56:20.558Z,17.13
2017-11-18T12:58:47.306Z,16.80
2017-11-18T13:01:14.083Z,16.40
2017-11-18T13:03:40.824Z,16.97
2017-11-18T13:06:07.512Z,17.30
2017-11-18T13:08:34.993Z,20.37
2017-11-18T13:11:01.697Z,20.80
2017-11-18T13:13:28.387Z,20.27
2017-11-18T13:15:55.096Z,21.43
2017-11-18T13:18:21.757Z,20.60
2017-11-18T13:20:48.458Z,20.43
2017-11-18T13:23:15.160Z,22.20
2017-11-18T13:25:41.896Z,23.90
2017-11-18T13:28:08.573Z,23.77
2017-11-18T13:30:35.315Z,22.37
2017-11-18T13:33:02.043Z,21.83
2017-11-18T13:35:28.763Z,19.53
2017-11-18T13:37:55.562Z,19.73
2017-11-18T13:40:22.335Z,17.40
2017-11-18T13:42:49.797Z,18.17
2017-11-18T13:45:17.231Z,19.87
2017-11-18T13:47:43.956Z,18.40
2017-11-18T13:50:10.649Z,17.70
2017-11-18T13:52:38.112Z,16.23
2017-11-18T13:55:05.526Z,15.23
2017-11-18T13:57:32.241Z,14.37
2017-11-18T13:59:58.931Z,13.77
2017-11-18T14:02:25.655Z,15.00
2017-11-18T14:04:52.384Z,15.33
2017-11-18T14:07:19.966Z,14.70
2017-11-18T14:09:46.742Z,13.80
2017-11-18T14:12:14.206Z,12.57
2017-11-18T14:14:40.967Z,14.27
2017-11-18T14:17:08.520Z,14.30
2017-11-18T14:19:35.965Z,14.43
2017-11-18T14:22:03.606Z,14.20
2017-11-18T14:24:30.372Z,15.03
2017-11-18T14:26:57.092Z,13.20
2017-11-18T14:29:23.829Z,14.70
2017-11-18T14:31:50.534Z,16.30
2017-11-18T14:34:18.692Z,16.63
2017-11-18T14:36:45.501Z,15.60
2017-11-18T14:39:12.259Z,16.30
2017-11-18T14:41:39.012Z,15.60
2017-11-18T14:44:05.725Z,17.60
2017-11-18T14:46:32.451Z,17.13
2017-11-18T14:48:59.163Z,17.73
2017-11-18T14:51:26.640Z,16.10
2017-11-18T14:53:53.418Z,15.57
2017-11-18T14:56:20.157Z,16.40
2017-11-18T14:58:46.913Z,18.67
2017-11-18T15:01:13.759Z,16.90
2017-11-18T15:03:40.558Z,18.60
2017-11-18T15:06:08.159Z,17.00
2017-11-18T15:08:35.004Z,17.97
2017-11-18T15:11:01.887Z,17.70
2017-11-18T15:13:29.447Z,17.30
2017-11-18T15:19:12.454Z,18.60
2017-11-18T15:21:45.187Z,18.17
2017-11-18T15:24:18.003Z,19.83
2017-11-18T15:26:51.571Z,19.30
2017-11-18T15:29:25.032Z,20.00
2017-11-18T15:31:57.731Z,17.00
2017-11-18T15:34:28.490Z,18.30
2017-11-18T15:36:57.103Z,18.70
2017-11-18T15:39:24.026Z,18.97
2017-11-18T15:41:51.742Z,22.53
2017-11-18T15:44:21.171Z,23.52
2017-11-18T16:00:15.670Z,22.20
2017-11-18T16:02:46.368Z,22.33
2017-11-18T16:05:13.943Z,26.67
2017-11-18T16:07:45.293Z,26.02
2017-11-18T16:10:13.713Z,26.58
2017-11-18T16:12:40.572Z,26.98
2017-11-18T16:15:07.354Z,26.53
2017-11-18T16:17:35.140Z,26.33
2017-11-18T16:20:02.673Z,25.60
2017-11-18T16:22:29.438Z,27.60
2017-11-18T16:24:56.276Z,25.90
2017-11-18T16:27:23.061Z,26.10
2017-11-18T16:29:49.834Z,27.33
2017-11-18T16:32:16.618Z,25.40
2017-11-18T16:34:43.388Z,25.70
2017-11-18T16:37:10.920Z,26.40
2017-11-18T16:39:37.716Z,24.10
2017-11-18T16:42:05.538Z,23.90
2017-11-18T16:44:32.321Z,24.10
2017-11-18T16:46:59.091Z,23.70
2017-11-18T16:49:26.739Z,24.00
2017-11-18T16:51:53.596Z,22.00
2017-11-18T16:54:22.493Z,23.07
2017-11-18T16:56:49.276Z,24.00
2017-11-18T16:59:16.151Z,22.33
2017-11-18T17:01:43.997Z,24.43
2017-11-18T17:04:10.892Z,25.30
2017-11-18T17:06:37.701Z,23.43
2017-11-18T17:09:04.526Z,24.33
2017-11-18T17:11:31.313Z,23.80
2017-11-18T17:13:58.863Z,22.77
2017-11-18T17:16:26.352Z,23.23
2017-11-18T17:18:53.150Z,21.63
2017-11-18T17:21:20.010Z,23.10
2017-11-18T17:23:47.206Z,24.00
2017-11-18T17:26:22.169Z,24.17
2017-11-18T17:28:50.471Z,25.73
2017-11-18T17:31:17.377Z,26.00
2017-11-18T17:33:44.297Z,24.33
2017-11-18T17:36:11.906Z,23.80
2017-11-18T17:38:38.782Z,25.53
2017-11-18T17:41:05.634Z,24.50
2017-11-18T17:43:32.526Z,22.20
2017-11-18T17:45:59.268Z,22.30
2017-11-18T17:48:26.144Z,23.87
2017-11-18T17:50:52.918Z,25.03
2017-11-18T17:53:20.471Z,22.52
2017-11-18T17:55:47.287Z,23.60
2017-11-18T17:58:14.075Z,24.27
2017-11-18T18:00:40.847Z,24.23
2017-11-18T18:03:08.038Z,23.83
2017-11-18T18:05:34.881Z,25.10
2017-11-18T18:08:01.695Z,25.13
2017-11-18T18:10:29.229Z,25.03
2017-11-18T18:12:56.122Z,24.20
2017-11-18T18:15:22.928Z,26.67
2017-11-18T18:17:49.757Z,25.73
2017-11-18T18:20:16.625Z,26.43
2017-11-18T18:22:44.167Z,24.70
2017-11-18T18:25:10.873Z,23.87
2017-11-18T18:27:38.554Z,22.93
2017-11-18T18:30:05.304Z,24.43
2017-11-18T18:32:32.004Z,24.17
2017-11-18T18:34:59.464Z,23.13
2017-11-18T18:37:26.935Z,24.03
2017-11-18T18:39:53.650Z,24.23
2017-11-18T18:42:20.399Z,25.77
2017-11-18T18:44:47.880Z,24.33
2017-11-18T18:47:14.624Z,25.80
2017-11-18T18:49:41.402Z,24.95
2017-11-18T18:52:08.197Z,24.80
2017-11-18T18:54:35.691Z,27.42
2017-11-18T18:57:02.427Z,26.37
2017-11-18T18:59:29.147Z,26.52
2017-11-18T19:01:56.602Z,30.23
2017-11-18T19:04:24.083Z,28.60
2017-11-18T19:06:50.828Z,29.48
2017-11-18T19:09:17.550Z,30.20
2017-11-18T19:11:45.008Z,30.50
2017-11-18T19:14:11.851Z,33.70
2017-11-18T19:16:38.631Z,34.65
2017-11-18T19:19:05.352Z,32.45
2017-11-18T19:21:32.080Z,32.83
2017-11-18T19:23:58.768Z,35.22
2017-11-18T19:26:25.480Z,34.47
2017-11-18T19:28:52.941Z,36.22
2017-11-18T19:31:19.696Z,32.10
2017-11-18T19:33:47.211Z,32.58
2017-11-18T19:36:13.989Z,33.00
2017-11-18T19:38:40.685Z,37.28
2017-11-18T19:41:07.447Z,41.40
2017-11-18T19:43:34.219Z,40.20
2017-11-18T19:46:01.676Z,39.05
2017-11-18T19:48:38.926Z,37.45
2017-11-18T19:51:06.704Z,36.40
2017-11-18T19:53:33.421Z,39.75
2017-11-18T19:56:00.161Z,37.72
2017-11-18T19:58:26.928Z,40.03
2017-11-18T20:00:53.715Z,43.38
2017-11-18T20:03:20.430Z,40.00
2017-11-18T20:05:47.319Z,38.38
2017-11-18T20:08:14.859Z,43.08
2017-11-18T20:10:41.626Z,46.50
2017-11-18T20:13:09.103Z,45.65
2017-11-18T20:15:35.917Z,37.22
2017-11-18T20:18:02.708Z,40.28
2017-11-18T20:20:29.517Z,36.72
2017-11-18T20:22:56.269Z,41.60
2017-11-18T20:25:23.746Z,40.03
2017-11-18T20:27:51.197Z,44.08
2017-11-18T20:30:18.791Z,41.83
2017-11-18T20:32:45.494Z,41.70
2017-11-18T20:35:12.584Z,40.65
2017-11-18T20:37:39.370Z,42.33
2017-11-18T20:40:06.122Z,46.75
2017-11-18T20:42:32.857Z,41.35
2017-11-18T20:44:59.534Z,40.90
2017-11-18T20:47:26.968Z,48.30
2017-11-18T20:49:53.774Z,43.85
2017-11-18T20:52:20.483Z,47.83
2017-11-18T20:54:47.997Z,41.42
2017-11-18T20:57:15.183Z,38.55
2017-11-18T20:59:41.904Z,49.63
2017-11-18T21:02:08.624Z,41.00
2017-11-18T21:04:35.379Z,44.15
2017-11-18T21:07:02.100Z,40.70
2017-11-18T21:09:28.747Z,37.65
2017-11-18T21:11:55.481Z,40.95
2017-11-18T21:14:22.192Z,40.15
2017-11-18T21:16:48.899Z,41.75
2017-11-18T21:19:15.697Z,40.45
2017-11-18T21:21:43.181Z,46.35
2017-11-18T21:24:09.860Z,46.80
2017-11-18T21:26:36.557Z,39.58
2017-11-18T21:29:04.005Z,44.22
2017-11-18T21:31:30.800Z,47.35
2017-11-18T21:33:57.606Z,54.05
2017-11-18T21:36:25.160Z,51.47
2017-11-18T21:38:52.619Z,42.45
2017-11-18T21:41:19.378Z,42.38
2017-11-18T21:43:46.836Z,42.70
2017-11-18T21:46:13.523Z,41.83
2017-11-18T21:48:40.248Z,43.63
2017-11-18T21:51:06.995Z,42.25
2017-11-18T21:53:33.990Z,47.25
2017-11-18T21:56:00.738Z,46.55
2017-11-18T21:58:27.445Z,54.38
2017-11-18T22:00:54.118Z,47.33
2017-11-18T22:03:20.812Z,43.35
2017-11-18T22:05:47.482Z,55.42
2017-11-18T22:08:14.221Z,39.92
2017-11-18T22:10:40.929Z,51.20
2017-11-18T22:13:07.613Z,49.97
2017-11-18T22:15:34.338Z,60.20
2017-11-18T22:18:01.016Z,45.20
2017-11-18T22:20:27.701Z,44.75
2017-11-18T22:22:54.409Z,46.33
2017-11-18T22:25:21.213Z,39.65
2017-11-18T22:27:47.992Z,50.95
2017-11-18T22:30:14.748Z,50.88
2017-11-18T22:32:41.489Z,43.90
2017-11-18T22:35:08.180Z,41.72
2017-11-18T22:37:34.876Z,47.45
2017-11-18T22:40:01.565Z,49.72
2017-11-18T22:42:28.223Z,47.85
2017-11-18T22:44:54.946Z,43.65
2017-11-18T22:47:21.616Z,39.53
2017-11-18T22:49:49.979Z,44.63
2017-11-18T22:52:16.703Z,71.28
2017-11-18T22:54:43.370Z,60.25
2017-11-18T22:57:10.087Z,80.07
2017-11-18T22:59:37.513Z,111.65
2017-11-18T23:02:04.237Z,72.47
2017-11-18T23:04:30.947Z,61.78
2017-11-18T23:06:57.776Z,67.90
2017-11-18T23:09:25.218Z,53.05
2017-11-18T23:11:51.912Z,54.80
2017-11-18T23:14:19.563Z,54.35
2017-11-18T23:16:46.226Z,56.00
2017-11-18T23:19:12.899Z,69.70
2017-11-18T23:21:39.588Z,161.27
2017-11-18T23:24:06.266Z,78.50
2017-11-18T23:26:32.953Z,84.07
2017-11-18T23:29:00.393Z,76.93
2017-11-18T23:31:27.130Z,73.93
2017-11-18T23:33:53.866Z,71.30
2017-11-18T23:36:20.587Z,80.38
2017-11-18T23:38:47.274Z,50.53
2017-11-18T23:41:13.984Z,57.30
2017-11-18T23:43:40.708Z,75.72
2017-11-18T23:46:07.444Z,41.22
2017-11-18T23:48:34.176Z,44.92
2017-11-18T23:51:00.858Z,102.25
2017-11-18T23:53:27.571Z,58.08
2017-11-18T23:55:54.325Z,53.85
2017-11-18T23:58:21.831Z,61.10
